Hinode Maru — JD3758 — position and weather

sailwx.info

Track history (hours):
 
Tides and Currents Weather Stations Pressure Air Temp Water Temp Dewpoint Dewpoint Depression Visibility Wind Speed Wind Dir Waves Ship Positions

Hinode Maru

Last reported at 2017-Nov-18 10:11 UTC. Time now 2017-Nov-18 21:29 UTC.
Position N 35°38' E 139°46'.

Length 33 m; draft 3.8 m.

Type: Tug. MMSI: 431005882.

Date/timePositionNaut miles runAvg speedWind from/ knotsBaromVisibWave heightAir tempDewpointWater temp
2017-Nov-18 10:11N 35°38' E 139°46'2 3.7
2017-Nov-18 09:44N 35°37' E 139°47'1 2.0
2017-Nov-18 09:24N 35°37' E 139°48'2 4.3
2017-Nov-18 08:59N 35°35' E 139°48'0 0.1
2017-Nov-18 08:29N 35°35' E 139°48'2 2.8
2017-Nov-18 07:51N 35°36' E 139°47'1 1.7
2017-Nov-18 07:25N 35°36' E 139°46'0 0.5
2017-Nov-18 06:28N 35°37' E 139°46'1 0.1
2017-Nov-17 13:27N 35°38' E 139°46'2 3.0
2017-Nov-17 12:53N 35°36' E 139°46'2 1.1
2017-Nov-17 10:55N 35°38' E 139°45'3 6.1
2017-Nov-17 10:23N 35°35' E 139°47'2 2.7
2017-Nov-17 09:37N 35°37' E 139°47'1 2.9
2017-Nov-17 09:18N 35°37' E 139°48'2 7.5
2017-Nov-17 09:00N 35°38' E 139°46'1 2.5
2017-Nov-17 08:29N 35°37' E 139°46'0 0.1
2017-Nov-17 07:59N 35°37' E 139°46'2 4.0
2017-Nov-17 07:30N 35°35' E 139°48'2 3.6
2017-Nov-17 07:01N 35°34' E 139°49'2 0.6
2017-Nov-17 04:13N 35°35' E 139°48'1 3.0
2017-Nov-17 03:52N 35°36' E 139°47'1 3.2
2017-Nov-17 03:30N 35°37' E 139°46'2 0.3
2017-Nov-16 23:08N 35°38' E 139°46'110.9
2017-Nov-16 23:00N 35°37' E 139°46'2 2.7
2017-Nov-16 22:11N 35°35' E 139°48'1 6.6
2017-Nov-16 21:59N 35°34' E 139°49'3 5.4
2017-Nov-16 21:25N 35°37' E 139°46'2 0.1
2017-Nov-16 07:05N 35°38' E 139°46'110.1
2017-Nov-16 07:00N 35°37' E 139°46'2 1.4
2017-Nov-16 05:28N 35°36' E 139°47'0 0.0
2017-Nov-16 04:43N 35°36' E 139°47'1 3.8
2017-Nov-16 04:26N 35°36' E 139°46'2 0.1
2017-Nov-15 10:12N 35°38' E 139°46'2 6.7
2017-Nov-15 09:54N 35°36' E 139°47'1 1.7
2017-Nov-15 09:27N 35°37' E 139°46'2 0.6
2017-Nov-15 06:00N 35°39' E 139°46'0 0.6
2017-Nov-15 05:30N 35°39' E 139°46'0 0.5
2017-Nov-15 04:52N 35°39' E 139°46'0 1.0
2017-Nov-15 04:28N 35°39' E 139°46'1 0.3
2017-Nov-15 02:45N 35°38' E 139°46'0 0.2
2017-Nov-15 02:28N 35°38' E 139°46'0 0.1
2017-Nov-14 23:10N 35°38' E 139°46'210.2
2017-Nov-14 23:00N 35°37' E 139°46'0 0.6
2017-Nov-14 22:31N 35°37' E 139°46'2 4.1
2017-Nov-14 22:01N 35°35' E 139°48'1 1.0
2017-Nov-14 20:30N 35°36' E 139°46'1 1.6
2017-Nov-14 20:00N 35°37' E 139°46'  
2017-Nov-12 15:48N 35°39' E 139°46'4 3.3
2017-Nov-12 14:33N 35°35' E 139°48'0 8.1
2017-Nov-12 14:30N 35°35' E 139°48'1 2.6
2017-Nov-12 14:00N 35°35' E 139°47'0 0.2
2017-Nov-12 13:30N 35°35' E 139°47'0 0.0
2017-Nov-12 12:55N 35°35' E 139°47'0 0.0
2017-Nov-12 12:30N 35°35' E 139°47'0 0.0
2017-Nov-12 11:42N 35°35' E 139°47'0 0.0
2017-Nov-12 11:27N 35°35' E 139°47'0 0.0
2017-Nov-12 11:00N 35°35' E 139°47'1 1.3
2017-Nov-12 10:28N 35°35' E 139°47'2 3.2
2017-Nov-12 09:54N 35°37' E 139°47'2 0.2
2017-Nov-12 01:59N 35°38' E 139°46'1 2.0
2017-Nov-12 01:29N 35°39' E 139°46'0 0.1
2017-Nov-12 00:31N 35°39' E 139°47'0 0.0
2017-Nov-12 00:12N 35°39' E 139°47'0 0.0
2017-Nov-11 23:49N 35°39' E 139°47'0 0.0
2017-Nov-11 23:15N 35°39' E 139°47'0 0.0
2017-Nov-11 22:55N 35°39' E 139°47'3 3.9
2017-Nov-11 22:02N 35°35' E 139°47'0 1.1
2017-Nov-11 21:51N 35°35' E 139°47'3 0.3
2017-Nov-11 10:02N 35°38' E 139°46'0 4.7
2017-Nov-11 09:57N 35°38' E 139°46'2 4.2
2017-Nov-11 09:29N 35°36' E 139°46'1 2.9
2017-Nov-11 08:59N 35°35' E 139°47'3 6.4
2017-Nov-11 08:30N 35°33' E 139°50'611.7
2017-Nov-11 07:58N 35°38' E 139°46'2 1.7
2017-Nov-11 06:59N 35°36' E 139°46'2 0.3
2017-Nov-11 01:29N 35°38' E 139°46'2 3.9
2017-Nov-11 01:00N 35°36' E 139°47'1 1.1
2017-Nov-11 00:28N 35°36' E 139°47'3 6.6
2017-Nov-11 00:00N 35°34' E 139°50'4 5.9
2017-Nov-10 23:24N 35°36' E 139°47'0 0.4
2017-Nov-10 22:58N 35°36' E 139°47'3 5.4
2017-Nov-10 22:29N 35°34' E 139°49'0 0.6
2017-Nov-10 22:00N 35°34' E 139°49'1 2.1
2017-Nov-10 21:28N 35°35' E 139°48'1 2.8
2017-Nov-10 20:59N 35°36' E 139°47'2 0.1
2017-Nov-09 21:23N 35°38' E 139°46'2 4.5
2017-Nov-09 21:00N 35°37' E 139°47'0 0.2
2017-Nov-09 20:29N 35°37' E 139°46'2 0.2
2017-Nov-09 12:56N 35°38' E 139°46'2 5.0
2017-Nov-09 12:30N 35°36' E 139°47'1 1.7
2017-Nov-09 11:49N 35°35' E 139°48'2 5.9
2017-Nov-09 11:31N 35°34' E 139°49'4 1.6
2017-Nov-09 09:12N 35°37' E 139°46'0 0.2
2017-Nov-09 08:57N 35°37' E 139°46'0 0.4
2017-Nov-09 08:29N 35°36' E 139°46'3 6.1
2017-Nov-09 07:59N 35°34' E 139°49'5 0.7
2017-Nov-09 00:51N 35°39' E 139°46'1 1.4
2017-Nov-09 00:28N 35°38' E 139°46'3 5.3
2017-Nov-08 23:54N 35°35' E 139°47'1 3.4
2017-Nov-08 23:29N 35°34' E 139°48'4 8.5
2017-Nov-08 23:00N 35°38' E 139°46'1 0.9
2017-Nov-08 22:22N 35°37' E 139°46'2 5.4
2017-Nov-08 22:00N 35°36' E 139°47'1 2.8
2017-Nov-08 21:31N 35°37' E 139°46'  
Track history (hours):
 
Tides and Currents Weather Stations Pressure Air Temp Water Temp Dewpoint Dewpoint Depression Visibility Wind Speed Wind Dir Waves Ship Positions

Hinode Maru

Last reported at 2017-Nov-18 10:11 UTC. Time now 2017-Nov-18 21:29 UTC.
Position N 35°38' E 139°46'.

Length 33 m; draft 3.8 m.

Type: Tug. MMSI: 431005882.

Date/timePositionNaut miles runAvg speedWind from/ knotsBaromVisibWave heightAir tempDewpointWater temp
2017-Nov-18 10:11N 35°38' E 139°46'2 3.7
2017-Nov-18 09:44N 35°37' E 139°47'1 2.0
2017-Nov-18 09:24N 35°37' E 139°48'2 4.3
2017-Nov-18 08:59N 35°35' E 139°48'0 0.1
2017-Nov-18 08:29N 35°35' E 139°48'2 2.8
2017-Nov-18 07:51N 35°36' E 139°47'1 1.7
2017-Nov-18 07:25N 35°36' E 139°46'0 0.5
2017-Nov-18 06:28N 35°37' E 139°46'1 0.1
2017-Nov-17 13:27N 35°38' E 139°46'2 3.0
2017-Nov-17 12:53N 35°36' E 139°46'2 1.1
2017-Nov-17 10:55N 35°38' E 139°45'3 6.1
2017-Nov-17 10:23N 35°35' E 139°47'2 2.7
2017-Nov-17 09:37N 35°37' E 139°47'1 2.9
2017-Nov-17 09:18N 35°37' E 139°48'2 7.5
2017-Nov-17 09:00N 35°38' E 139°46'1 2.5
2017-Nov-17 08:29N 35°37' E 139°46'0 0.1
2017-Nov-17 07:59N 35°37' E 139°46'2 4.0
2017-Nov-17 07:30N 35°35' E 139°48'2 3.6
2017-Nov-17 07:01N 35°34' E 139°49'2 0.6
2017-Nov-17 04:13N 35°35' E 139°48'1 3.0
2017-Nov-17 03:52N 35°36' E 139°47'1 3.2
2017-Nov-17 03:30N 35°37' E 139°46'2 0.3
2017-Nov-16 23:08N 35°38' E 139°46'110.9
2017-Nov-16 23:00N 35°37' E 139°46'2 2.7
2017-Nov-16 22:11N 35°35' E 139°48'1 6.6
2017-Nov-16 21:59N 35°34' E 139°49'3 5.4
2017-Nov-16 21:25N 35°37' E 139°46'2 0.1
2017-Nov-16 07:05N 35°38' E 139°46'110.1
2017-Nov-16 07:00N 35°37' E 139°46'2 1.4
2017-Nov-16 05:28N 35°36' E 139°47'0 0.0
2017-Nov-16 04:43N 35°36' E 139°47'1 3.8
2017-Nov-16 04:26N 35°36' E 139°46'2 0.1
2017-Nov-15 10:12N 35°38' E 139°46'2 6.7
2017-Nov-15 09:54N 35°36' E 139°47'1 1.7
2017-Nov-15 09:27N 35°37' E 139°46'2 0.6
2017-Nov-15 06:00N 35°39' E 139°46'0 0.6
2017-Nov-15 05:30N 35°39' E 139°46'0 0.5
2017-Nov-15 04:52N 35°39' E 139°46'0 1.0
2017-Nov-15 04:28N 35°39' E 139°46'1 0.3
2017-Nov-15 02:45N 35°38' E 139°46'0 0.2
2017-Nov-15 02:28N 35°38' E 139°46'0 0.1
2017-Nov-14 23:10N 35°38' E 139°46'210.2
2017-Nov-14 23:00N 35°37' E 139°46'0 0.6
2017-Nov-14 22:31N 35°37' E 139°46'2 4.1
2017-Nov-14 22:01N 35°35' E 139°48'1 1.0
2017-Nov-14 20:30N 35°36' E 139°46'1 1.6
2017-Nov-14 20:00N 35°37' E 139°46'  
2017-Nov-12 15:48N 35°39' E 139°46'4 3.3
2017-Nov-12 14:33N 35°35' E 139°48'0 8.1
2017-Nov-12 14:30N 35°35' E 139°48'1 2.6
2017-Nov-12 14:00N 35°35' E 139°47'0 0.2
2017-Nov-12 13:30N 35°35' E 139°47'0 0.0
2017-Nov-12 12:55N 35°35' E 139°47'0 0.0
2017-Nov-12 12:30N 35°35' E 139°47'0 0.0
2017-Nov-12 11:42N 35°35' E 139°47'0 0.0
2017-Nov-12 11:27N 35°35' E 139°47'0 0.0
2017-Nov-12 11:00N 35°35' E 139°47'1 1.3
2017-Nov-12 10:28N 35°35' E 139°47'2 3.2
2017-Nov-12 09:54N 35°37' E 139°47'2 0.2
2017-Nov-12 01:59N 35°38' E 139°46'1 2.0
2017-Nov-12 01:29N 35°39' E 139°46'0 0.1
2017-Nov-12 00:31N 35°39' E 139°47'0 0.0
2017-Nov-12 00:12N 35°39' E 139°47'0 0.0
2017-Nov-11 23:49N 35°39' E 139°47'0 0.0
2017-Nov-11 23:15N 35°39' E 139°47'0 0.0
2017-Nov-11 22:55N 35°39' E 139°47'3 3.9
2017-Nov-11 22:02N 35°35' E 139°47'0 1.1
2017-Nov-11 21:51N 35°35' E 139°47'3 0.3
2017-Nov-11 10:02N 35°38' E 139°46'0 4.7
2017-Nov-11 09:57N 35°38' E 139°46'2 4.2
2017-Nov-11 09:29N 35°36' E 139°46'1 2.9
2017-Nov-11 08:59N 35°35' E 139°47'3 6.4
2017-Nov-11 08:30N 35°33' E 139°50'611.7
2017-Nov-11 07:58N 35°38' E 139°46'2 1.7
2017-Nov-11 06:59N 35°36' E 139°46'2 0.3
2017-Nov-11 01:29N 35°38' E 139°46'2 3.9
2017-Nov-11 01:00N 35°36' E 139°47'1 1.1
2017-Nov-11 00:28N 35°36' E 139°47'3 6.6
2017-Nov-11 00:00N 35°34' E 139°50'4 5.9
2017-Nov-10 23:24N 35°36' E 139°47'0 0.4
2017-Nov-10 22:58N 35°36' E 139°47'3 5.4
2017-Nov-10 22:29N 35°34' E 139°49'0 0.6
2017-Nov-10 22:00N 35°34' E 139°49'1 2.1
2017-Nov-10 21:28N 35°35' E 139°48'1 2.8
2017-Nov-10 20:59N 35°36' E 139°47'2 0.1
2017-Nov-09 21:23N 35°38' E 139°46'2 4.5
2017-Nov-09 21:00N 35°37' E 139°47'0 0.2
2017-Nov-09 20:29N 35°37' E 139°46'2 0.2
2017-Nov-09 12:56N 35°38' E 139°46'2 5.0
2017-Nov-09 12:30N 35°36' E 139°47'1 1.7
2017-Nov-09 11:49N 35°35' E 139°48'2 5.9
2017-Nov-09 11:31N 35°34' E 139°49'4 1.6
2017-Nov-09 09:12N 35°37' E 139°46'0 0.2
2017-Nov-09 08:57N 35°37' E 139°46'0 0.4
2017-Nov-09 08:29N 35°36' E 139°46'3 6.1
2017-Nov-09 07:59N 35°34' E 139°49'5 0.7
2017-Nov-09 00:51N 35°39' E 139°46'1 1.4
2017-Nov-09 00:28N 35°38' E 139°46'3 5.3
2017-Nov-08 23:54N 35°35' E 139°47'1 3.4
2017-Nov-08 23:29N 35°34' E 139°48'4 8.5
2017-Nov-08 23:00N 35°38' E 139°46'1 0.9
2017-Nov-08 22:22N 35°37' E 139°46'2 5.4
2017-Nov-08 22:00N 35°36' E 139°47'1 2.8
2017-Nov-08 21:31N 35°37' E 139°46'  

Dump ship's entire track history